sensor_id;sensor_type;location;lat;lon;timestamp;temperature;humidity
79786;DHT22;69265;43.614;13.518;2023-05-10T00:02:09;16.60;67.10
79786;DHT22;69265;43.614;13.518;2023-05-10T00:04:35;16.50;67.30
79786;DHT22;69265;43.614;13.518;2023-05-10T00:07:00;16.50;67.50
79786;DHT22;69265;43.614;13.518;2023-05-10T00:09:26;16.50;67.50
79786;DHT22;69265;43.614;13.518;2023-05-10T00:11:52;16.50;67.80
79786;DHT22;69265;43.614;13.518;2023-05-10T00:14:18;16.50;67.90
79786;DHT22;69265;43.614;13.518;2023-05-10T00:16:44;16.50;67.80
79786;DHT22;69265;43.614;13.518;2023-05-10T00:19:10;16.50;67.80
79786;DHT22;69265;43.614;13.518;2023-05-10T00:21:36;16.50;67.80
79786;DHT22;69265;43.614;13.518;2023-05-10T00:24:02;16.50;67.80
79786;DHT22;69265;43.614;13.518;2023-05-10T00:26:28;16.50;67.70
79786;DHT22;69265;43.614;13.518;2023-05-10T00:28:53;16.50;67.80
79786;DHT22;69265;43.614;13.518;2023-05-10T00:31:19;16.50;68.00
79786;DHT22;69265;43.614;13.518;2023-05-10T00:33:45;16.50;68.10
79786;DHT22;69265;43.614;13.518;2023-05-10T00:36:11;16.50;68.30
79786;DHT22;69265;43.614;13.518;2023-05-10T00:38:36;16.50;68.40
79786;DHT22;69265;43.614;13.518;2023-05-10T00:41:02;16.50;68.50
79786;DHT22;69265;43.614;13.518;2023-05-10T00:43:28;16.40;68.60
79786;DHT22;69265;43.614;13.518;2023-05-10T00:45:54;16.50;68.70
79786;DHT22;69265;43.614;13.518;2023-05-10T00:48:21;16.40;68.70
79786;DHT22;69265;43.614;13.518;2023-05-10T00:50:47;16.40;68.90
79786;DHT22;69265;43.614;13.518;2023-05-10T00:53:13;16.40;69.00
79786;DHT22;69265;43.614;13.518;2023-05-10T00:55:39;16.40;69.10
79786;DHT22;69265;43.614;13.518;2023-05-10T00:58:05;16.40;69.20
79786;DHT22;69265;43.614;13.518;2023-05-10T01:00:33;16.40;69.10
79786;DHT22;69265;43.614;13.518;2023-05-10T01:02:59;16.40;69.20
79786;DHT22;69265;43.614;13.518;2023-05-10T01:05:26;16.40;69.10
79786;DHT22;69265;43.614;13.518;2023-05-10T01:07:52;16.40;69.30
79786;DHT22;69265;43.614;13.518;2023-05-10T01:10:19;16.40;69.30
79786;DHT22;69265;43.614;13.518;2023-05-10T01:12:46;16.40;69.40
79786;DHT22;69265;43.614;13.518;2023-05-10T01:15:13;16.40;69.40
79786;DHT22;69265;43.614;13.518;2023-05-10T01:17:42;16.40;69.50
79786;DHT22;69265;43.614;13.518;2023-05-10T01:20:10;16.40;69.50
79786;DHT22;69265;43.614;13.518;2023-05-10T01:33:54;16.40;70.30
79786;DHT22;69265;43.614;13.518;2023-05-10T01:36:25;16.40;70.40
79786;DHT22;69265;43.614;13.518;2023-05-10T01:39:17;16.40;70.50
79786;DHT22;69265;43.614;13.518;2023-05-10T01:42:01;16.40;70.60
79786;DHT22;69265;43.614;13.518;2023-05-10T01:47:09;16.40;70.80
79786;DHT22;69265;43.614;13.518;2023-05-10T01:49:47;16.40;70.90
79786;DHT22;69265;43.614;13.518;2023-05-10T01:52:18;16.40;71.00
79786;DHT22;69265;43.614;13.518;2023-05-10T01:54:59;16.40;71.10
79786;DHT22;69265;43.614;13.518;2023-05-10T01:57:27;16.40;71.10
79786;DHT22;69265;43.614;13.518;2023-05-10T01:59:58;16.40;71.00
79786;DHT22;69265;43.614;13.518;2023-05-10T02:02:27;16.40;70.90
79786;DHT22;69265;43.614;13.518;2023-05-10T02:04:54;16.40;70.80
79786;DHT22;69265;43.614;13.518;2023-05-10T02:07:22;16.40;70.70
79786;DHT22;69265;43.614;13.518;2023-05-10T02:09:49;16.40;70.70
79786;DHT22;69265;43.614;13.518;2023-05-10T02:12:17;16.40;70.70
79786;DHT22;69265;43.614;13.518;2023-05-10T02:14:44;16.40;70.60
79786;DHT22;69265;43.614;13.518;2023-05-10T02:17:11;16.40;70.50
79786;DHT22;69265;43.614;13.518;2023-05-10T02:19:40;16.40;70.60
79786;DHT22;69265;43.614;13.518;2023-05-10T02:22:08;16.40;70.70
79786;DHT22;69265;43.614;13.518;2023-05-10T02:24:35;16.40;70.80
79786;DHT22;69265;43.614;13.518;2023-05-10T02:27:03;16.40;70.90
79786;DHT22;69265;43.614;13.518;2023-05-10T02:29:30;16.40;70.90
79786;DHT22;69265;43.614;13.518;2023-05-10T02:31:57;16.40;70.90
79786;DHT22;69265;43.614;13.518;2023-05-10T02:34:26;16.40;70.90
79786;DHT22;69265;43.614;13.518;2023-05-10T02:36:53;16.40;71.00
79786;DHT22;69265;43.614;13.518;2023-05-10T02:39:20;16.40;70.90
79786;DHT22;69265;43.614;13.518;2023-05-10T02:41:48;16.40;70.90
79786;DHT22;69265;43.614;13.518;2023-05-10T02:44:17;16.40;70.90
79786;DHT22;69265;43.614;13.518;2023-05-10T02:46:43;16.40;70.90
79786;DHT22;69265;43.614;13.518;2023-05-10T02:49:09;16.40;71.00
79786;DHT22;69265;43.614;13.518;2023-05-10T02:51:39;16.40;71.00
79786;DHT22;69265;43.614;13.518;2023-05-10T02:54:22;16.40;71.00
79786;DHT22;69265;43.614;13.518;2023-05-10T02:56:58;16.40;71.00
79786;DHT22;69265;43.614;13.518;2023-05-10T02:59:26;16.40;71.00
79786;DHT22;69265;43.614;13.518;2023-05-10T03:01:52;16.40;71.10
79786;DHT22;69265;43.614;13.518;2023-05-10T03:04:18;16.40;71.20
79786;DHT22;69265;43.614;13.518;2023-05-10T03:06:45;16.40;71.40
79786;DHT22;69265;43.614;13.518;2023-05-10T03:09:12;16.40;71.50
79786;DHT22;69265;43.614;13.518;2023-05-10T03:17:10;16.40;71.60
79786;DHT22;69265;43.614;13.518;2023-05-10T03:19:56;16.40;71.70
79786;DHT22;69265;43.614;13.518;2023-05-10T03:22:54;16.40;71.70
79786;DHT22;69265;43.614;13.518;2023-05-10T03:25:21;16.40;71.80
79786;DHT22;69265;43.614;13.518;2023-05-10T03:27:47;16.30;72.00
79786;DHT22;69265;43.614;13.518;2023-05-10T03:30:14;16.40;71.90
79786;DHT22;69265;43.614;13.518;2023-05-10T03:32:41;16.40;72.00
79786;DHT22;69265;43.614;13.518;2023-05-10T03:35:08;16.30;71.90
79786;DHT22;69265;43.614;13.518;2023-05-10T03:37:34;16.30;71.80
79786;DHT22;69265;43.614;13.518;2023-05-10T03:40:01;16.40;71.80
79786;DHT22;69265;43.614;13.518;2023-05-10T03:42:27;16.40;71.70
79786;DHT22;69265;43.614;13.518;2023-05-10T03:44:52;16.40;71.50
79786;DHT22;69265;43.614;13.518;2023-05-10T03:47:18;16.40;70.60
79786;DHT22;69265;43.614;13.518;2023-05-10T03:49:44;16.40;70.30
79786;DHT22;69265;43.614;13.518;2023-05-10T03:52:09;16.40;70.00
79786;DHT22;69265;43.614;13.518;2023-05-10T03:54:35;16.40;69.80
79786;DHT22;69265;43.614;13.518;2023-05-10T03:57:01;16.40;69.00
79786;DHT22;69265;43.614;13.518;2023-05-10T03:59:28;16.40;68.00
79786;DHT22;69265;43.614;13.518;2023-05-10T04:01:54;16.40;67.90
79786;DHT22;69265;43.614;13.518;2023-05-10T04:04:19;16.40;67.90
79786;DHT22;69265;43.614;13.518;2023-05-10T04:06:47;16.40;68.00
79786;DHT22;69265;43.614;13.518;2023-05-10T04:09:12;16.40;67.70
79786;DHT22;69265;43.614;13.518;2023-05-10T04:11:39;16.40;67.60
79786;DHT22;69265;43.614;13.518;2023-05-10T04:14:05;16.40;67.70
79786;DHT22;69265;43.614;13.518;2023-05-10T04:16:30;16.50;67.70
79786;DHT22;69265;43.614;13.518;2023-05-10T04:18:56;16.50;67.80
79786;DHT22;69265;43.614;13.518;2023-05-10T04:21:22;16.50;67.80
79786;DHT22;69265;43.614;13.518;2023-05-10T04:23:48;16.50;67.70
79786;DHT22;69265;43.614;13.518;2023-05-10T04:26:14;16.50;67.70
79786;DHT22;69265;43.614;13.518;2023-05-10T04:28:40;16.50;67.20
79786;DHT22;69265;43.614;13.518;2023-05-10T04:31:08;16.50;67.20
79786;DHT22;69265;43.614;13.518;2023-05-10T04:33:34;16.50;67.20
79786;DHT22;69265;43.614;13.518;2023-05-10T04:36:00;16.50;67.00
79786;DHT22;69265;43.614;13.518;2023-05-10T04:38:27;16.50;67.10
79786;DHT22;69265;43.614;13.518;2023-05-10T04:40:54;16.50;66.70
79786;DHT22;69265;43.614;13.518;2023-05-10T04:43:19;16.50;66.50
79786;DHT22;69265;43.614;13.518;2023-05-10T04:45:46;16.50;66.50
79786;DHT22;69265;43.614;13.518;2023-05-10T04:48:11;16.60;66.50
79786;DHT22;69265;43.614;13.518;2023-05-10T04:50:38;16.60;66.10
79786;DHT22;69265;43.614;13.518;2023-05-10T04:53:04;16.60;66.10
79786;DHT22;69265;43.614;13.518;2023-05-10T04:55:30;16.60;66.00
79786;DHT22;69265;43.614;13.518;2023-05-10T04:57:55;16.70;65.80
79786;DHT22;69265;43.614;13.518;2023-05-10T05:00:23;16.70;65.70
79786;DHT22;69265;43.614;13.518;2023-05-10T05:02:49;16.70;65.70
79786;DHT22;69265;43.614;13.518;2023-05-10T05:05:15;16.80;65.50
79786;DHT22;69265;43.614;13.518;2023-05-10T05:07:41;16.80;65.20
79786;DHT22;69265;43.614;13.518;2023-05-10T05:10:08;16.90;65.10
79786;DHT22;69265;43.614;13.518;2023-05-10T05:12:34;16.90;65.10
79786;DHT22;69265;43.614;13.518;2023-05-10T05:15:00;17.00;65.00
79786;DHT22;69265;43.614;13.518;2023-05-10T05:17:26;17.00;64.70
79786;DHT22;69265;43.614;13.518;2023-05-10T05:19:52;17.20;64.60
79786;DHT22;69265;43.614;13.518;2023-05-10T05:22:18;17.20;64.40
79786;DHT22;69265;43.614;13.518;2023-05-10T05:24:45;17.20;64.30
79786;DHT22;69265;43.614;13.518;2023-05-10T05:27:11;17.40;64.20
79786;DHT22;69265;43.614;13.518;2023-05-10T05:29:37;17.50;64.10
79786;DHT22;69265;43.614;13.518;2023-05-10T05:32:02;17.50;64.00
79786;DHT22;69265;43.614;13.518;2023-05-10T05:34:28;17.50;64.10
79786;DHT22;69265;43.614;13.518;2023-05-10T05:36:54;17.60;64.10
79786;DHT22;69265;43.614;13.518;2023-05-10T05:39:20;17.70;64.00
79786;DHT22;69265;43.614;13.518;2023-05-10T05:41:46;17.70;64.00
79786;DHT22;69265;43.614;13.518;2023-05-10T05:44:12;17.80;64.00
79786;DHT22;69265;43.614;13.518;2023-05-10T05:46:38;17.80;64.00
79786;DHT22;69265;43.614;13.518;2023-05-10T05:49:03;17.80;64.00
79786;DHT22;69265;43.614;13.518;2023-05-10T05:51:29;17.80;64.20
79786;DHT22;69265;43.614;13.518;2023-05-10T05:53:55;17.80;64.50
79786;DHT22;69265;43.614;13.518;2023-05-10T05:56:21;17.80;64.60
79786;DHT22;69265;43.614;13.518;2023-05-10T05:58:50;17.80;64.70
79786;DHT22;69265;43.614;13.518;2023-05-10T06:01:16;17.80;64.60
79786;DHT22;69265;43.614;13.518;2023-05-10T06:03:42;17.80;64.80
79786;DHT22;69265;43.614;13.518;2023-05-10T06:06:07;17.80;64.90
79786;DHT22;69265;43.614;13.518;2023-05-10T06:08:33;17.80;64.80
79786;DHT22;69265;43.614;13.518;2023-05-10T06:11:00;17.80;64.80
79786;DHT22;69265;43.614;13.518;2023-05-10T06:13:26;17.80;65.00
79786;DHT22;69265;43.614;13.518;2023-05-10T06:15:57;17.80;64.80
79786;DHT22;69265;43.614;13.518;2023-05-10T06:18:23;17.80;64.90
79786;DHT22;69265;43.614;13.518;2023-05-10T06:20:49;17.80;64.90
79786;DHT22;69265;43.614;13.518;2023-05-10T06:23:15;17.80;64.80
79786;DHT22;69265;43.614;13.518;2023-05-10T06:25:41;17.80;64.70
79786;DHT22;69265;43.614;13.518;2023-05-10T06:28:07;17.80;64.60
79786;DHT22;69265;43.614;13.518;2023-05-10T06:30:32;17.80;64.50
79786;DHT22;69265;43.614;13.518;2023-05-10T06:32:58;17.80;64.50
79786;DHT22;69265;43.614;13.518;2023-05-10T06:35:24;17.80;64.10
79786;DHT22;69265;43.614;13.518;2023-05-10T06:37:50;17.80;64.10
79786;DHT22;69265;43.614;13.518;2023-05-10T06:40:17;17.90;64.10
79786;DHT22;69265;43.614;13.518;2023-05-10T06:42:43;18.00;64.10
79786;DHT22;69265;43.614;13.518;2023-05-10T06:45:10;18.00;63.90
79786;DHT22;69265;43.614;13.518;2023-05-10T06:47:36;18.10;63.90
79786;DHT22;69265;43.614;13.518;2023-05-10T06:50:02;18.10;63.70
79786;DHT22;69265;43.614;13.518;2023-05-10T06:52:28;18.20;63.50
79786;DHT22;69265;43.614;13.518;2023-05-10T06:54:54;18.20;63.60
79786;DHT22;69265;43.614;13.518;2023-05-10T06:57:20;18.30;63.40
79786;DHT22;69265;43.614;13.518;2023-05-10T06:59:46;18.40;63.20
79786;DHT22;69265;43.614;13.518;2023-05-10T07:02:11;18.50;63.40
79786;DHT22;69265;43.614;13.518;2023-05-10T07:04:37;18.50;62.90
79786;DHT22;69265;43.614;13.518;2023-05-10T07:07:03;18.60;62.60
79786;DHT22;69265;43.614;13.518;2023-05-10T07:09:29;18.60;62.60
79786;DHT22;69265;43.614;13.518;2023-05-10T07:11:55;18.60;62.00
79786;DHT22;69265;43.614;13.518;2023-05-10T07:14:22;18.70;62.00
79786;DHT22;69265;43.614;13.518;2023-05-10T07:16:48;18.80;61.90
79786;DHT22;69265;43.614;13.518;2023-05-10T07:19:14;18.80;61.80
79786;DHT22;69265;43.614;13.518;2023-05-10T07:21:40;18.90;61.70
79786;DHT22;69265;43.614;13.518;2023-05-10T07:24:08;18.90;61.60
79786;DHT22;69265;43.614;13.518;2023-05-10T07:26:34;19.00;61.70
79786;DHT22;69265;43.614;13.518;2023-05-10T07:29:00;19.10;61.70
79786;DHT22;69265;43.614;13.518;2023-05-10T07:31:26;19.10;61.40
79786;DHT22;69265;43.614;13.518;2023-05-10T07:33:52;19.20;60.90
79786;DHT22;69265;43.614;13.518;2023-05-10T07:36:18;19.30;60.80
79786;DHT22;69265;43.614;13.518;2023-05-10T07:38:43;19.30;60.60
79786;DHT22;69265;43.614;13.518;2023-05-10T07:41:11;19.20;60.60
79786;DHT22;69265;43.614;13.518;2023-05-10T07:43:37;19.20;60.70
79786;DHT22;69265;43.614;13.518;2023-05-10T07:46:02;19.30;60.70
79786;DHT22;69265;43.614;13.518;2023-05-10T07:48:28;19.30;60.70
79786;DHT22;69265;43.614;13.518;2023-05-10T07:50:54;19.40;60.80
79786;DHT22;69265;43.614;13.518;2023-05-10T07:53:19;19.50;60.80
79786;DHT22;69265;43.614;13.518;2023-05-10T07:55:50;19.50;60.80
79786;DHT22;69265;43.614;13.518;2023-05-10T07:58:17;19.50;60.80
79786;DHT22;69265;43.614;13.518;2023-05-10T08:00:43;19.50;61.00
79786;DHT22;69265;43.614;13.518;2023-05-10T08:03:09;19.50;61.00
79786;DHT22;69265;43.614;13.518;2023-05-10T08:05:34;19.60;61.10
79786;DHT22;69265;43.614;13.518;2023-05-10T08:08:00;19.50;60.90
79786;DHT22;69265;43.614;13.518;2023-05-10T08:10:26;19.50;61.20
79786;DHT22;69265;43.614;13.518;2023-05-10T08:12:52;19.50;61.10
79786;DHT22;69265;43.614;13.518;2023-05-10T08:15:17;19.40;61.50
79786;DHT22;69265;43.614;13.518;2023-05-10T08:17:43;19.30;61.70
79786;DHT22;69265;43.614;13.518;2023-05-10T08:20:09;19.30;62.20
79786;DHT22;69265;43.614;13.518;2023-05-10T08:22:35;19.30;62.30
79786;DHT22;69265;43.614;13.518;2023-05-10T08:25:01;19.30;62.30
79786;DHT22;69265;43.614;13.518;2023-05-10T08:27:26;19.20;62.60
79786;DHT22;69265;43.614;13.518;2023-05-10T08:29:52;19.20;62.70
79786;DHT22;69265;43.614;13.518;2023-05-10T08:32:18;19.20;62.90
79786;DHT22;69265;43.614;13.518;2023-05-10T08:34:43;19.20;63.20
79786;DHT22;69265;43.614;13.518;2023-05-10T08:37:09;19.10;63.30
79786;DHT22;69265;43.614;13.518;2023-05-10T08:39:38;19.10;63.50
79786;DHT22;69265;43.614;13.518;2023-05-10T08:42:04;19.00;63.60
79786;DHT22;69265;43.614;13.518;2023-05-10T08:44:35;19.00;63.90
79786;DHT22;69265;43.614;13.518;2023-05-10T08:47:05;19.00;64.10
79786;DHT22;69265;43.614;13.518;2023-05-10T08:49:33;19.00;64.10
79786;DHT22;69265;43.614;13.518;2023-05-10T08:52:02;19.00;64.20
79786;DHT22;69265;43.614;13.518;2023-05-10T08:54:31;19.00;64.20
79786;DHT22;69265;43.614;13.518;2023-05-10T08:56:57;19.10;64.20
79786;DHT22;69265;43.614;13.518;2023-05-10T08:59:23;19.10;64.40
79786;DHT22;69265;43.614;13.518;2023-05-10T09:01:50;19.20;64.30
79786;DHT22;69265;43.614;13.518;2023-05-10T09:04:16;19.30;64.20
79786;DHT22;69265;43.614;13.518;2023-05-10T09:06:42;19.50;63.80
79786;DHT22;69265;43.614;13.518;2023-05-10T09:09:08;19.50;63.70
79786;DHT22;69265;43.614;13.518;2023-05-10T09:11:34;19.50;63.30
79786;DHT22;69265;43.614;13.518;2023-05-10T09:14:01;19.60;63.20
79786;DHT22;69265;43.614;13.518;2023-05-10T09:16:27;19.70;63.20
79786;DHT22;69265;43.614;13.518;2023-05-10T09:18:52;19.70;61.90
79786;DHT22;69265;43.614;13.518;2023-05-10T09:21:19;19.70;61.90
79786;DHT22;69265;43.614;13.518;2023-05-10T09:23:46;19.90;62.00
79786;DHT22;69265;43.614;13.518;2023-05-10T09:26:12;20.00;61.90
79786;DHT22;69265;43.614;13.518;2023-05-10T09:31:17;20.10;61.10
79786;DHT22;69265;43.614;13.518;2023-05-10T09:33:49;20.10;60.80
79786;DHT22;69265;43.614;13.518;2023-05-10T09:36:15;20.00;60.90
79786;DHT22;69265;43.614;13.518;2023-05-10T09:38:50;20.10;60.90
79786;DHT22;69265;43.614;13.518;2023-05-10T09:41:21;20.10;61.00
79786;DHT22;69265;43.614;13.518;2023-05-10T09:43:48;20.00;61.30
79786;DHT22;69265;43.614;13.518;2023-05-10T09:46:15;20.10;61.50
79786;DHT22;69265;43.614;13.518;2023-05-10T09:48:45;20.20;61.50
79786;DHT22;69265;43.614;13.518;2023-05-10T09:51:19;20.20;61.60
79786;DHT22;69265;43.614;13.518;2023-05-10T09:53:45;20.30;61.20
79786;DHT22;69265;43.614;13.518;2023-05-10T09:56:11;20.30;60.80
79786;DHT22;69265;43.614;13.518;2023-05-10T09:58:37;20.30;61.00
79786;DHT22;69265;43.614;13.518;2023-05-10T10:01:11;20.30;61.10
79786;DHT22;69265;43.614;13.518;2023-05-10T10:03:42;20.30;61.20
79786;DHT22;69265;43.614;13.518;2023-05-10T10:06:08;20.30;61.00
79786;DHT22;69265;43.614;13.518;2023-05-10T10:08:34;20.20;61.40
79786;DHT22;69265;43.614;13.518;2023-05-10T10:11:00;20.30;61.80
79786;DHT22;69265;43.614;13.518;2023-05-10T10:13:27;20.30;62.00
79786;DHT22;69265;43.614;13.518;2023-05-10T10:15:54;20.30;61.90
79786;DHT22;69265;43.614;13.518;2023-05-10T10:18:20;20.30;62.20
79786;DHT22;69265;43.614;13.518;2023-05-10T10:20:53;20.30;62.10
79786;DHT22;69265;43.614;13.518;2023-05-10T10:23:19;20.40;61.90
79786;DHT22;69265;43.614;13.518;2023-05-10T10:25:45;20.30;61.90
79786;DHT22;69265;43.614;13.518;2023-05-10T10:30:51;20.30;61.90
79786;DHT22;69265;43.614;13.518;2023-05-10T10:33:40;20.30;62.00
79786;DHT22;69265;43.614;13.518;2023-05-10T10:36:07;20.30;62.20
79786;DHT22;69265;43.614;13.518;2023-05-10T10:38:57;20.30;62.50
79786;DHT22;69265;43.614;13.518;2023-05-10T10:47:21;20.20;62.30
79786;DHT22;69265;43.614;13.518;2023-05-10T10:50:13;20.10;62.60
79786;DHT22;69265;43.614;13.518;2023-05-10T10:52:42;20.00;63.10
79786;DHT22;69265;43.614;13.518;2023-05-10T10:55:13;19.90;63.10
79786;DHT22;69265;43.614;13.518;2023-05-10T11:00:25;20.00;63.60
79786;DHT22;69265;43.614;13.518;2023-05-10T11:05:44;20.10;63.90
79786;DHT22;69265;43.614;13.518;2023-05-10T11:08:31;20.10;63.80
79786;DHT22;69265;43.614;13.518;2023-05-10T11:13:42;20.10;63.40
79786;DHT22;69265;43.614;13.518;2023-05-10T11:18:38;20.00;63.60
79786;DHT22;69265;43.614;13.518;2023-05-10T11:21:05;20.00;63.60
79786;DHT22;69265;43.614;13.518;2023-05-10T11:26:11;20.10;63.40
79786;DHT22;69265;43.614;13.518;2023-05-10T11:28:44;20.00;62.90
79786;DHT22;69265;43.614;13.518;2023-05-10T11:31:13;20.00;63.20
79786;DHT22;69265;43.614;13.518;2023-05-10T11:33:49;20.00;63.20
79786;DHT22;69265;43.614;13.518;2023-05-10T11:36:17;20.10;63.10
79786;DHT22;69265;43.614;13.518;2023-05-10T11:38:43;20.10;63.20
79786;DHT22;69265;43.614;13.518;2023-05-10T11:41:10;20.20;63.30
79786;DHT22;69265;43.614;13.518;2023-05-10T11:43:40;20.20;63.50
79786;DHT22;69265;43.614;13.518;2023-05-10T11:46:07;20.30;63.50
79786;DHT22;69265;43.614;13.518;2023-05-10T11:48:35;20.30;63.60
79786;DHT22;69265;43.614;13.518;2023-05-10T11:51:01;20.30;63.20
79786;DHT22;69265;43.614;13.518;2023-05-10T11:53:31;20.30;63.00
79786;DHT22;69265;43.614;13.518;2023-05-10T11:56:06;20.10;63.00
79786;DHT22;69265;43.614;13.518;2023-05-10T11:58:33;20.00;63.30
79786;DHT22;69265;43.614;13.518;2023-05-10T12:01:00;19.90;63.70
79786;DHT22;69265;43.614;13.518;2023-05-10T12:03:29;19.90;63.60
79786;DHT22;69265;43.614;13.518;2023-05-10T12:05:56;19.70;63.60
79786;DHT22;69265;43.614;13.518;2023-05-10T12:08:25;19.70;64.00
79786;DHT22;69265;43.614;13.518;2023-05-10T12:10:51;19.50;64.00
79786;DHT22;69265;43.614;13.518;2023-05-10T12:13:18;19.40;63.90
79786;DHT22;69265;43.614;13.518;2023-05-10T12:15:44;19.30;64.10
79786;DHT22;69265;43.614;13.518;2023-05-10T12:18:11;19.20;64.20
79786;DHT22;69265;43.614;13.518;2023-05-10T12:20:38;19.20;64.20
79786;DHT22;69265;43.614;13.518;2023-05-10T12:23:04;19.10;64.00
79786;DHT22;69265;43.614;13.518;2023-05-10T12:25:35;19.00;64.20
79786;DHT22;69265;43.614;13.518;2023-05-10T12:28:07;19.00;64.20
79786;DHT22;69265;43.614;13.518;2023-05-10T12:30:34;19.00;64.10
79786;DHT22;69265;43.614;13.518;2023-05-10T12:33:08;19.00;64.20
79786;DHT22;69265;43.614;13.518;2023-05-10T12:35:51;18.90;64.10
79786;DHT22;69265;43.614;13.518;2023-05-10T12:38:34;18.90;64.00
79786;DHT22;69265;43.614;13.518;2023-05-10T12:41:01;19.00;63.60
79786;DHT22;69265;43.614;13.518;2023-05-10T12:43:27;19.10;63.20
79786;DHT22;69265;43.614;13.518;2023-05-10T12:45:53;19.30;63.00
79786;DHT22;69265;43.614;13.518;2023-05-10T12:48:19;19.40;63.00
79786;DHT22;69265;43.614;13.518;2023-05-10T12:50:45;19.50;63.00
79786;DHT22;69265;43.614;13.518;2023-05-10T12:53:12;19.40;63.20
79786;DHT22;69265;43.614;13.518;2023-05-10T12:55:39;19.40;63.50
79786;DHT22;69265;43.614;13.518;2023-05-10T12:58:05;19.40;64.00
79786;DHT22;69265;43.614;13.518;2023-05-10T13:00:30;19.30;64.50
79786;DHT22;69265;43.614;13.518;2023-05-10T13:02:56;19.20;65.10
79786;DHT22;69265;43.614;13.518;2023-05-10T13:05:22;19.20;65.40
79786;DHT22;69265;43.614;13.518;2023-05-10T13:07:47;19.10;65.90
79786;DHT22;69265;43.614;13.518;2023-05-10T13:10:13;19.10;66.50
79786;DHT22;69265;43.614;13.518;2023-05-10T13:12:39;19.00;66.70
79786;DHT22;69265;43.614;13.518;2023-05-10T13:15:06;18.90;67.10
79786;DHT22;69265;43.614;13.518;2023-05-10T13:17:32;18.80;67.40
79786;DHT22;69265;43.614;13.518;2023-05-10T13:19:57;18.70;67.90
79786;DHT22;69265;43.614;13.518;2023-05-10T13:22:23;18.60;68.20
79786;DHT22;69265;43.614;13.518;2023-05-10T13:24:49;18.60;68.40
79786;DHT22;69265;43.614;13.518;2023-05-10T13:27:15;18.60;68.70
79786;DHT22;69265;43.614;13.518;2023-05-10T13:29:40;18.60;68.70
79786;DHT22;69265;43.614;13.518;2023-05-10T13:32:06;18.50;68.80
79786;DHT22;69265;43.614;13.518;2023-05-10T13:34:32;18.50;69.00
79786;DHT22;69265;43.614;13.518;2023-05-10T13:36:57;18.50;68.90
79786;DHT22;69265;43.614;13.518;2023-05-10T13:39:23;18.50;69.10
79786;DHT22;69265;43.614;13.518;2023-05-10T13:41:49;18.40;69.30
79786;DHT22;69265;43.614;13.518;2023-05-10T13:44:15;18.40;69.40
79786;DHT22;69265;43.614;13.518;2023-05-10T13:46:41;18.40;69.20
79786;DHT22;69265;43.614;13.518;2023-05-10T13:49:10;18.40;69.20
79786;DHT22;69265;43.614;13.518;2023-05-10T13:51:36;18.40;69.20
79786;DHT22;69265;43.614;13.518;2023-05-10T13:54:02;18.40;69.40
79786;DHT22;69265;43.614;13.518;2023-05-10T13:56:28;18.50;69.60
79786;DHT22;69265;43.614;13.518;2023-05-10T13:58:54;18.60;69.60
79786;DHT22;69265;43.614;13.518;2023-05-10T14:01:19;18.60;69.50
79786;DHT22;69265;43.614;13.518;2023-05-10T14:03:45;18.60;69.40
79786;DHT22;69265;43.614;13.518;2023-05-10T14:06:11;18.60;69.50
79786;DHT22;69265;43.614;13.518;2023-05-10T14:08:37;18.60;69.20
79786;DHT22;69265;43.614;13.518;2023-05-10T14:11:02;18.50;69.10
79786;DHT22;69265;43.614;13.518;2023-05-10T14:13:28;18.50;69.40
79786;DHT22;69265;43.614;13.518;2023-05-10T14:15:54;18.50;69.50
79786;DHT22;69265;43.614;13.518;2023-05-10T14:18:20;18.40;69.70
79786;DHT22;69265;43.614;13.518;2023-05-10T14:20:46;18.40;69.50
79786;DHT22;69265;43.614;13.518;2023-05-10T14:23:12;18.50;69.40
79786;DHT22;69265;43.614;13.518;2023-05-10T14:25:40;18.50;69.30
79786;DHT22;69265;43.614;13.518;2023-05-10T14:28:06;18.50;69.20
79786;DHT22;69265;43.614;13.518;2023-05-10T14:30:32;18.50;69.30
79786;DHT22;69265;43.614;13.518;2023-05-10T14:32:59;18.50;69.20
79786;DHT22;69265;43.614;13.518;2023-05-10T14:35:27;18.60;69.10
79786;DHT22;69265;43.614;13.518;2023-05-10T14:37:53;18.60;68.90
79786;DHT22;69265;43.614;13.518;2023-05-10T14:40:18;18.60;68.90
79786;DHT22;69265;43.614;13.518;2023-05-10T14:42:44;18.60;69.00
79786;DHT22;69265;43.614;13.518;2023-05-10T14:45:10;18.60;68.90
79786;DHT22;69265;43.614;13.518;2023-05-10T14:47:37;18.50;68.70
79786;DHT22;69265;43.614;13.518;2023-05-10T14:50:03;18.40;69.10
79786;DHT22;69265;43.614;13.518;2023-05-10T14:52:29;18.40;69.50
79786;DHT22;69265;43.614;13.518;2023-05-10T14:54:54;18.30;69.80
79786;DHT22;69265;43.614;13.518;2023-05-10T14:57:20;18.30;70.00
79786;DHT22;69265;43.614;13.518;2023-05-10T14:59:46;18.20;70.40
79786;DHT22;69265;43.614;13.518;2023-05-10T15:02:12;18.10;70.70
79786;DHT22;69265;43.614;13.518;2023-05-10T15:04:38;18.00;70.90
79786;DHT22;69265;43.614;13.518;2023-05-10T15:07:03;18.10;71.10
79786;DHT22;69265;43.614;13.518;2023-05-10T15:09:29;18.00;71.30
79786;DHT22;69265;43.614;13.518;2023-05-10T15:11:55;18.00;71.50
79786;DHT22;69265;43.614;13.518;2023-05-10T15:14:22;18.00;71.70
79786;DHT22;69265;43.614;13.518;2023-05-10T15:16:47;18.00;71.90
79786;DHT22;69265;43.614;13.518;2023-05-10T15:19:13;17.90;72.00
79786;DHT22;69265;43.614;13.518;2023-05-10T15:21:40;17.80;72.20
79786;DHT22;69265;43.614;13.518;2023-05-10T15:24:08;17.80;72.40
79786;DHT22;69265;43.614;13.518;2023-05-10T15:26:33;17.80;72.50
79786;DHT22;69265;43.614;13.518;2023-05-10T15:28:59;17.80;72.50
79786;DHT22;69265;43.614;13.518;2023-05-10T15:31:25;17.80;72.60
79786;DHT22;69265;43.614;13.518;2023-05-10T15:33:56;17.80;72.80
79786;DHT22;69265;43.614;13.518;2023-05-10T15:36:22;17.80;72.90
79786;DHT22;69265;43.614;13.518;2023-05-10T15:38:48;17.80;73.10
79786;DHT22;69265;43.614;13.518;2023-05-10T15:41:14;17.70;73.30
79786;DHT22;69265;43.614;13.518;2023-05-10T15:43:40;17.60;73.60
79786;DHT22;69265;43.614;13.518;2023-05-10T15:46:06;17.60;73.60
79786;DHT22;69265;43.614;13.518;2023-05-10T15:48:31;17.60;73.60
79786;DHT22;69265;43.614;13.518;2023-05-10T15:50:57;17.60;73.90
79786;DHT22;69265;43.614;13.518;2023-05-10T15:53:23;17.60;74.20
79786;DHT22;69265;43.614;13.518;2023-05-10T15:55:49;17.60;74.20
79786;DHT22;69265;43.614;13.518;2023-05-10T15:58:14;17.60;74.30
79786;DHT22;69265;43.614;13.518;2023-05-10T16:00:41;17.60;74.40